ADDS METAR Data INFO
IDs: Format: Raw Decoded Include TAF

Data at: 0647 UTC 21 Jan 2018

KPKB 210624Z AUTO 18005KT 10SM SCT020 BKN037 OVC050 07/04 A3016 RMK AO2 T00720039
KPKB 210553Z AUTO 17004KT 10SM OVC018 06/03 A3017 RMK AO2 RAB0459E32 SLP220 P0000 60000 T00610033 10083 20061 50001
KPKB 210453Z AUTO 21003KT 10SM OVC020 08/02 A3018 RMK AO2 SLP222 T00830022 401000022
KPKB 210353Z 21006KT 10SM OVC022 08/02 A3017 RMK AO2 SLP220 T00780022
KPKB 210341Z 22004KT 10SM BKN022 OVC046 08/02 A3017 RMK AO2 T00830017
KPKB 210253Z 21006KT 10SM OVC046 08/01 A3017 RMK AO2 SLP218 T00780011 51008
KPKB 210158Z 20006KT 10SM SCT028 OVC038 07/01 A3016 RMK AO2 T00720011
KPKB 210153Z 21007KT 10SM BKN028 OVC036 08/01 A3016 RMK AO2 SLP217 T00780011
KPKB 210053Z 23006KT 10SM OVC030 08/01 A3016 RMK AO2 SLP217 T00780006
KPKB 202353Z 20005KT 10SM CLR 08/M01 A3014 RMK AO2 SLP211 T00781006 10100 20072 53015
KPKB 202253Z 22005KT 10SM CLR 08/M01 A3012 RMK AO2 SLP204 T00831011
KPKB 202153Z 21009G15KT 10SM CLR 10/M01 A3011 RMK AO2 SLP199 T01001011
KPKB 202053Z 22009KT 10SM CLR 10/M02 A3010 RMK AO2 SLP194 T01001017 55005
KPKB 201953Z 23007KT 200V270 10SM CLR 10/M02 A3009 RMK AO2 SLP192 T01001022
KPKB 201853Z 21009G18KT 10SM CLR 08/M02 A3009 RMK AO2 SLP194 T00831022
KPKB 201753Z 25011G18KT 10SM CLR 08/M02 A3011 RMK AO2 SLP200 T00831022 10083 20028 58010
KPKB 201653Z 25009G17KT 10SM CLR 08/M02 A3014 RMK AO2 SLP209 T00781022
KPKB 201553Z 22011G19KT 10SM CLR 07/M02 A3014 RMK AO2 SLP213 T00721022
KPKB 201453Z 23012G20KT 10SM CLR 07/M02 A3014 RMK AO2 SLP211 T00671022 53010
KPKB 201353Z 21009KT 10SM CLR 04/M02 A3013 RMK AO2 SLP209 T00441022
KPKB 201253Z 20009KT 10SM CLR 03/M03 A3012 RMK AO2 SLP205 T00331033
KPKB 201153Z 20009KT 10SM CLR 03/M04 A3011 RMK AO2 SLP202 T00331044 10033 20022 53006
KPKB 201053Z AUTO 20007KT 10SM CLR 02/M06 A3011 RMK AO2 SLP201 T00221061
KPKB 200953Z AUTO 20008KT 10SM CLR 03/M07 A3009 RMK AO2 SLP194 T00281072
KPKB 200853Z AUTO 20008KT 10SM FEW030 03/M08 A3009 RMK AO2 SLP195 T00281078 53009
KPKB 200753Z AUTO 20010KT 10SM FEW028 03/M09 A3008 RMK AO2 SLP191 T00281089
KPKB 200653Z AUTO 20009KT 10SM CLR 03/M10 A3007 RMK AO2 SLP189 T00281100